sensor_id;sensor_type;location;lat;lon;timestamp;P1;durP1;ratioP1;P2;durP2;ratioP2
7173;SDS011;3628;48.654;8.932;2023-05-10T00:01:53;0.47;;;0.47;;
7173;SDS011;3628;48.654;8.932;2023-05-10T00:04:19;2.27;;;0.30;;
7173;SDS011;3628;48.654;8.932;2023-05-10T00:06:45;0.43;;;0.30;;
7173;SDS011;3628;48.654;8.932;2023-05-10T00:09:10;0.50;;;0.30;;
7173;SDS011;3628;48.654;8.932;2023-05-10T00:11:36;0.27;;;0.20;;
7173;SDS011;3628;48.654;8.932;2023-05-10T00:14:01;0.53;;;0.10;;
7173;SDS011;3628;48.654;8.932;2023-05-10T00:16:27;0.20;;;0.13;;
7173;SDS011;3628;48.654;8.932;2023-05-10T00:18:53;0.10;;;0.10;;
7173;SDS011;3628;48.654;8.932;2023-05-10T00:21:18;1.57;;;0.20;;
7173;SDS011;3628;48.654;8.932;2023-05-10T00:23:44;0.07;;;0.07;;
7173;SDS011;3628;48.654;8.932;2023-05-10T00:26:09;0.10;;;0.10;;
7173;SDS011;3628;48.654;8.932;2023-05-10T00:28:35;0.10;;;0.10;;
7173;SDS011;3628;48.654;8.932;2023-05-10T00:31:00;0.17;;;0.10;;
7173;SDS011;3628;48.654;8.932;2023-05-10T00:33:26;0.13;;;0.10;;
7173;SDS011;3628;48.654;8.932;2023-05-10T00:35:52;3.50;;;0.20;;
7173;SDS011;3628;48.654;8.932;2023-05-10T00:38:17;0.20;;;0.10;;
7173;SDS011;3628;48.654;8.932;2023-05-10T00:40:43;0.10;;;0.00;;
7173;SDS011;3628;48.654;8.932;2023-05-10T00:43:09;1.70;;;0.10;;
7173;SDS011;3628;48.654;8.932;2023-05-10T00:45:34;0.97;;;0.10;;
7173;SDS011;3628;48.654;8.932;2023-05-10T00:48:02;0.30;;;0.10;;
7173;SDS011;3628;48.654;8.932;2023-05-10T00:50:28;0.40;;;0.10;;
7173;SDS011;3628;48.654;8.932;2023-05-10T00:52:54;0.10;;;0.00;;
7173;SDS011;3628;48.654;8.932;2023-05-10T00:55:20;0.57;;;0.10;;
7173;SDS011;3628;48.654;8.932;2023-05-10T00:57:46;0.10;;;0.10;;
7173;SDS011;3628;48.654;8.932;2023-05-10T01:00:12;0.17;;;0.00;;
7173;SDS011;3628;48.654;8.932;2023-05-10T01:02:42;0.97;;;0.00;;
7173;SDS011;3628;48.654;8.932;2023-05-10T01:05:11;0.00;;;0.00;;
7173;SDS011;3628;48.654;8.932;2023-05-10T01:07:37;0.53;;;0.17;;
7173;SDS011;3628;48.654;8.932;2023-05-10T01:10:04;1.70;;;0.20;;
7173;SDS011;3628;48.654;8.932;2023-05-10T01:12:37;0.10;;;0.10;;
7173;SDS011;3628;48.654;8.932;2023-05-10T01:15:06;1.67;;;0.10;;
7173;SDS011;3628;48.654;8.932;2023-05-10T01:17:33;2.57;;;0.20;;
7173;SDS011;3628;48.654;8.932;2023-05-10T01:20:01;0.00;;;0.00;;
7173;SDS011;3628;48.654;8.932;2023-05-10T01:39:11;0.10;;;0.00;;
7173;SDS011;3628;48.654;8.932;2023-05-10T01:41:41;0.00;;;0.00;;
7173;SDS011;3628;48.654;8.932;2023-05-10T01:47:08;1.70;;;0.10;;
7173;SDS011;3628;48.654;8.932;2023-05-10T01:49:50;1.60;;;0.10;;
7173;SDS011;3628;48.654;8.932;2023-05-10T01:52:21;0.03;;;0.03;;
7173;SDS011;3628;48.654;8.932;2023-05-10T01:54:54;0.43;;;0.10;;
7173;SDS011;3628;48.654;8.932;2023-05-10T01:57:26;0.00;;;0.00;;
7173;SDS011;3628;48.654;8.932;2023-05-10T01:59:57;0.70;;;0.10;;
7173;SDS011;3628;48.654;8.932;2023-05-10T02:02:25;1.60;;;0.17;;
7173;SDS011;3628;48.654;8.932;2023-05-10T02:04:53;0.10;;;0.10;;
7173;SDS011;3628;48.654;8.932;2023-05-10T02:07:20;1.30;;;0.10;;
7173;SDS011;3628;48.654;8.932;2023-05-10T02:09:48;0.10;;;0.10;;
7173;SDS011;3628;48.654;8.932;2023-05-10T02:12:14;1.20;;;0.30;;
7173;SDS011;3628;48.654;8.932;2023-05-10T02:14:41;0.00;;;0.00;;
7173;SDS011;3628;48.654;8.932;2023-05-10T02:17:07;0.10;;;0.10;;
7173;SDS011;3628;48.654;8.932;2023-05-10T02:19:35;0.20;;;0.10;;
7173;SDS011;3628;48.654;8.932;2023-05-10T02:22:03;0.13;;;0.13;;
7173;SDS011;3628;48.654;8.932;2023-05-10T02:24:29;0.50;;;0.20;;
7173;SDS011;3628;48.654;8.932;2023-05-10T02:26:57;0.77;;;0.20;;
7173;SDS011;3628;48.654;8.932;2023-05-10T02:29:24;0.10;;;0.10;;
7173;SDS011;3628;48.654;8.932;2023-05-10T02:31:51;0.10;;;0.10;;
7173;SDS011;3628;48.654;8.932;2023-05-10T02:34:19;0.13;;;0.13;;
7173;SDS011;3628;48.654;8.932;2023-05-10T02:36:47;1.60;;;0.20;;
7173;SDS011;3628;48.654;8.932;2023-05-10T02:39:13;0.10;;;0.10;;
7173;SDS011;3628;48.654;8.932;2023-05-10T02:41:41;0.50;;;0.10;;
7173;SDS011;3628;48.654;8.932;2023-05-10T02:44:07;0.30;;;0.20;;
7173;SDS011;3628;48.654;8.932;2023-05-10T02:46:34;0.10;;;0.10;;
7173;SDS011;3628;48.654;8.932;2023-05-10T02:49:01;0.00;;;0.00;;
7173;SDS011;3628;48.654;8.932;2023-05-10T02:51:28;0.10;;;0.10;;
7173;SDS011;3628;48.654;8.932;2023-05-10T02:53:56;2.33;;;0.07;;
7173;SDS011;3628;48.654;8.932;2023-05-10T02:56:31;0.20;;;0.20;;
7173;SDS011;3628;48.654;8.932;2023-05-10T02:59:00;0.17;;;0.10;;
7173;SDS011;3628;48.654;8.932;2023-05-10T03:01:25;0.13;;;0.13;;
7173;SDS011;3628;48.654;8.932;2023-05-10T03:03:51;1.30;;;0.20;;
7173;SDS011;3628;48.654;8.932;2023-05-10T03:06:16;0.30;;;0.10;;
7173;SDS011;3628;48.654;8.932;2023-05-10T03:08:42;0.00;;;0.00;;
7173;SDS011;3628;48.654;8.932;2023-05-10T03:16:44;0.30;;;0.20;;
7173;SDS011;3628;48.654;8.932;2023-05-10T03:19:16;0.10;;;0.10;;
7173;SDS011;3628;48.654;8.932;2023-05-10T03:21:49;0.20;;;0.20;;
7173;SDS011;3628;48.654;8.932;2023-05-10T03:24:18;1.83;;;0.20;;
7173;SDS011;3628;48.654;8.932;2023-05-10T03:26:46;0.20;;;0.20;;
7173;SDS011;3628;48.654;8.932;2023-05-10T03:29:13;1.80;;;0.20;;
7173;SDS011;3628;48.654;8.932;2023-05-10T03:31:40;2.63;;;0.30;;
7173;SDS011;3628;48.654;8.932;2023-05-10T03:34:06;1.50;;;0.30;;
7173;SDS011;3628;48.654;8.932;2023-05-10T03:36:32;2.10;;;0.30;;
7173;SDS011;3628;48.654;8.932;2023-05-10T03:38:57;0.83;;;0.30;;
7173;SDS011;3628;48.654;8.932;2023-05-10T03:41:23;0.50;;;0.10;;
7173;SDS011;3628;48.654;8.932;2023-05-10T03:43:50;0.40;;;0.20;;
7173;SDS011;3628;48.654;8.932;2023-05-10T03:46:16;0.30;;;0.30;;
7173;SDS011;3628;48.654;8.932;2023-05-10T03:48:41;0.80;;;0.27;;
7173;SDS011;3628;48.654;8.932;2023-05-10T03:51:07;0.43;;;0.20;;
7173;SDS011;3628;48.654;8.932;2023-05-10T03:53:32;0.30;;;0.30;;
7173;SDS011;3628;48.654;8.932;2023-05-10T03:55:58;0.30;;;0.30;;
7173;SDS011;3628;48.654;8.932;2023-05-10T03:58:23;0.30;;;0.27;;
7173;SDS011;3628;48.654;8.932;2023-05-10T04:00:49;0.83;;;0.30;;
7173;SDS011;3628;48.654;8.932;2023-05-10T04:03:15;0.33;;;0.30;;
7173;SDS011;3628;48.654;8.932;2023-05-10T04:05:41;2.13;;;0.30;;
7173;SDS011;3628;48.654;8.932;2023-05-10T04:08:07;0.30;;;0.30;;
7173;SDS011;3628;48.654;8.932;2023-05-10T04:10:32;1.53;;;0.40;;
7173;SDS011;3628;48.654;8.932;2023-05-10T04:12:58;0.20;;;0.20;;
7173;SDS011;3628;48.654;8.932;2023-05-10T04:15:23;1.20;;;0.60;;
7173;SDS011;3628;48.654;8.932;2023-05-10T04:17:49;0.83;;;0.47;;
7173;SDS011;3628;48.654;8.932;2023-05-10T04:20:15;1.23;;;0.40;;
7173;SDS011;3628;48.654;8.932;2023-05-10T04:22:41;1.00;;;0.40;;
7173;SDS011;3628;48.654;8.932;2023-05-10T04:25:06;0.30;;;0.30;;
7173;SDS011;3628;48.654;8.932;2023-05-10T04:27:32;0.47;;;0.47;;
7173;SDS011;3628;48.654;8.932;2023-05-10T04:29:58;0.63;;;0.30;;
7173;SDS011;3628;48.654;8.932;2023-05-10T04:32:23;1.17;;;0.40;;
7173;SDS011;3628;48.654;8.932;2023-05-10T04:34:49;0.47;;;0.40;;
7173;SDS011;3628;48.654;8.932;2023-05-10T04:37:16;0.43;;;0.30;;
7173;SDS011;3628;48.654;8.932;2023-05-10T04:39:41;0.83;;;0.53;;
7173;SDS011;3628;48.654;8.932;2023-05-10T04:42:07;0.87;;;0.40;;
7173;SDS011;3628;48.654;8.932;2023-05-10T04:44:33;0.40;;;0.40;;
7173;SDS011;3628;48.654;8.932;2023-05-10T04:46:58;1.33;;;0.37;;
7173;SDS011;3628;48.654;8.932;2023-05-10T04:49:24;1.93;;;0.40;;
7173;SDS011;3628;48.654;8.932;2023-05-10T04:51:50;1.20;;;0.30;;
7173;SDS011;3628;48.654;8.932;2023-05-10T04:54:15;0.77;;;0.50;;
7173;SDS011;3628;48.654;8.932;2023-05-10T04:56:41;0.50;;;0.50;;
7173;SDS011;3628;48.654;8.932;2023-05-10T04:59:06;0.40;;;0.40;;
7173;SDS011;3628;48.654;8.932;2023-05-10T05:01:32;3.23;;;0.60;;
7173;SDS011;3628;48.654;8.932;2023-05-10T05:03:58;1.20;;;0.70;;
7173;SDS011;3628;48.654;8.932;2023-05-10T05:06:24;1.33;;;0.77;;
7173;SDS011;3628;48.654;8.932;2023-05-10T05:08:50;1.73;;;0.93;;
7173;SDS011;3628;48.654;8.932;2023-05-10T05:11:16;1.53;;;0.60;;
7173;SDS011;3628;48.654;8.932;2023-05-10T05:13:42;0.70;;;0.57;;
7173;SDS011;3628;48.654;8.932;2023-05-10T05:16:07;0.60;;;0.60;;
7173;SDS011;3628;48.654;8.932;2023-05-10T05:18:33;0.30;;;0.30;;
7173;SDS011;3628;48.654;8.932;2023-05-10T05:20:58;0.77;;;0.50;;
7173;SDS011;3628;48.654;8.932;2023-05-10T05:23:24;2.47;;;0.43;;
7173;SDS011;3628;48.654;8.932;2023-05-10T05:25:53;0.30;;;0.30;;
7173;SDS011;3628;48.654;8.932;2023-05-10T05:28:19;1.13;;;0.60;;
7173;SDS011;3628;48.654;8.932;2023-05-10T05:30:45;0.53;;;0.40;;
7173;SDS011;3628;48.654;8.932;2023-05-10T05:33:11;1.40;;;0.50;;
7173;SDS011;3628;48.654;8.932;2023-05-10T05:35:38;0.40;;;0.30;;
7173;SDS011;3628;48.654;8.932;2023-05-10T05:38:04;1.00;;;0.43;;
7173;SDS011;3628;48.654;8.932;2023-05-10T05:40:30;1.07;;;0.67;;
7173;SDS011;3628;48.654;8.932;2023-05-10T05:42:55;0.90;;;0.60;;
7173;SDS011;3628;48.654;8.932;2023-05-10T05:45:21;4.83;;;0.60;;
7173;SDS011;3628;48.654;8.932;2023-05-10T05:47:46;0.43;;;0.40;;
7173;SDS011;3628;48.654;8.932;2023-05-10T05:50:12;0.40;;;0.40;;
7173;SDS011;3628;48.654;8.932;2023-05-10T05:52:38;1.63;;;0.60;;
7173;SDS011;3628;48.654;8.932;2023-05-10T05:55:03;1.03;;;0.50;;
7173;SDS011;3628;48.654;8.932;2023-05-10T05:57:29;0.50;;;0.50;;
7173;SDS011;3628;48.654;8.932;2023-05-10T05:59:55;0.57;;;0.50;;
7173;SDS011;3628;48.654;8.932;2023-05-10T06:02:21;0.50;;;0.50;;
7173;SDS011;3628;48.654;8.932;2023-05-10T06:04:46;1.40;;;0.50;;
7173;SDS011;3628;48.654;8.932;2023-05-10T06:07:12;2.70;;;0.40;;
7173;SDS011;3628;48.654;8.932;2023-05-10T06:09:37;1.07;;;0.60;;
7173;SDS011;3628;48.654;8.932;2023-05-10T06:12:03;7.37;;;1.07;;
7173;SDS011;3628;48.654;8.932;2023-05-10T06:14:28;0.83;;;0.63;;
7173;SDS011;3628;48.654;8.932;2023-05-10T06:16:54;1.43;;;0.50;;
7173;SDS011;3628;48.654;8.932;2023-05-10T06:19:20;0.40;;;0.40;;
7173;SDS011;3628;48.654;8.932;2023-05-10T06:21:45;0.90;;;0.60;;
7173;SDS011;3628;48.654;8.932;2023-05-10T06:24:11;0.80;;;0.57;;
7173;SDS011;3628;48.654;8.932;2023-05-10T06:26:36;0.70;;;0.67;;
7173;SDS011;3628;48.654;8.932;2023-05-10T06:29:02;0.93;;;0.60;;
7173;SDS011;3628;48.654;8.932;2023-05-10T06:31:27;1.10;;;0.30;;
7173;SDS011;3628;48.654;8.932;2023-05-10T06:33:53;0.77;;;0.30;;
7173;SDS011;3628;48.654;8.932;2023-05-10T06:36:18;0.90;;;0.30;;
7173;SDS011;3628;48.654;8.932;2023-05-10T06:38:44;0.50;;;0.47;;
7173;SDS011;3628;48.654;8.932;2023-05-10T06:41:09;0.30;;;0.30;;
7173;SDS011;3628;48.654;8.932;2023-05-10T06:43:35;0.30;;;0.30;;
7173;SDS011;3628;48.654;8.932;2023-05-10T06:46:04;0.60;;;0.30;;
7173;SDS011;3628;48.654;8.932;2023-05-10T06:48:30;1.00;;;0.50;;
7173;SDS011;3628;48.654;8.932;2023-05-10T06:50:56;1.67;;;0.50;;
7173;SDS011;3628;48.654;8.932;2023-05-10T06:53:21;1.87;;;0.47;;
7173;SDS011;3628;48.654;8.932;2023-05-10T06:55:47;4.50;;;1.10;;
7173;SDS011;3628;48.654;8.932;2023-05-10T06:58:14;1.67;;;0.70;;
7173;SDS011;3628;48.654;8.932;2023-05-10T07:00:39;0.40;;;0.40;;
7173;SDS011;3628;48.654;8.932;2023-05-10T07:03:07;1.30;;;0.50;;
7173;SDS011;3628;48.654;8.932;2023-05-10T07:05:33;2.90;;;0.70;;
7173;SDS011;3628;48.654;8.932;2023-05-10T07:07:58;0.50;;;0.50;;
7173;SDS011;3628;48.654;8.932;2023-05-10T07:10:24;3.57;;;0.57;;
7173;SDS011;3628;48.654;8.932;2023-05-10T07:12:50;1.03;;;0.40;;
7173;SDS011;3628;48.654;8.932;2023-05-10T07:15:15;0.70;;;0.53;;
7173;SDS011;3628;48.654;8.932;2023-05-10T07:17:41;3.93;;;1.17;;
7173;SDS011;3628;48.654;8.932;2023-05-10T07:20:07;0.53;;;0.40;;
7173;SDS011;3628;48.654;8.932;2023-05-10T07:22:33;0.40;;;0.40;;
7173;SDS011;3628;48.654;8.932;2023-05-10T07:24:59;0.60;;;0.50;;
7173;SDS011;3628;48.654;8.932;2023-05-10T07:27:24;0.30;;;0.30;;
7173;SDS011;3628;48.654;8.932;2023-05-10T07:29:50;0.33;;;0.30;;
7173;SDS011;3628;48.654;8.932;2023-05-10T07:32:16;0.80;;;0.40;;
7173;SDS011;3628;48.654;8.932;2023-05-10T07:34:41;1.20;;;0.30;;
7173;SDS011;3628;48.654;8.932;2023-05-10T07:37:07;1.37;;;0.20;;
7173;SDS011;3628;48.654;8.932;2023-05-10T07:39:33;0.43;;;0.30;;
7173;SDS011;3628;48.654;8.932;2023-05-10T07:41:58;0.20;;;0.20;;
7173;SDS011;3628;48.654;8.932;2023-05-10T07:44:24;2.27;;;0.53;;
7173;SDS011;3628;48.654;8.932;2023-05-10T07:46:49;0.40;;;0.40;;
7173;SDS011;3628;48.654;8.932;2023-05-10T07:49:15;0.70;;;0.20;;
7173;SDS011;3628;48.654;8.932;2023-05-10T07:51:41;0.70;;;0.20;;
7173;SDS011;3628;48.654;8.932;2023-05-10T07:54:07;0.47;;;0.30;;
7173;SDS011;3628;48.654;8.932;2023-05-10T07:56:33;0.60;;;0.20;;
7173;SDS011;3628;48.654;8.932;2023-05-10T07:58:59;1.73;;;0.13;;
7173;SDS011;3628;48.654;8.932;2023-05-10T08:01:25;0.20;;;0.20;;
7173;SDS011;3628;48.654;8.932;2023-05-10T08:03:51;1.37;;;0.30;;
7173;SDS011;3628;48.654;8.932;2023-05-10T08:06:18;1.43;;;0.30;;
7173;SDS011;3628;48.654;8.932;2023-05-10T08:08:47;1.60;;;0.20;;
7173;SDS011;3628;48.654;8.932;2023-05-10T08:11:18;0.27;;;0.20;;
7173;SDS011;3628;48.654;8.932;2023-05-10T08:13:47;0.83;;;0.10;;
7173;SDS011;3628;48.654;8.932;2023-05-10T08:16:14;0.20;;;0.20;;
7173;SDS011;3628;48.654;8.932;2023-05-10T08:18:40;0.33;;;0.20;;
7173;SDS011;3628;48.654;8.932;2023-05-10T08:21:06;0.87;;;0.20;;
7173;SDS011;3628;48.654;8.932;2023-05-10T08:23:32;0.37;;;0.23;;
7173;SDS011;3628;48.654;8.932;2023-05-10T08:25:58;0.63;;;0.10;;
7173;SDS011;3628;48.654;8.932;2023-05-10T08:28:24;0.10;;;0.10;;
7173;SDS011;3628;48.654;8.932;2023-05-10T08:30:50;0.57;;;0.30;;
7173;SDS011;3628;48.654;8.932;2023-05-10T08:33:17;0.20;;;0.20;;
7173;SDS011;3628;48.654;8.932;2023-05-10T08:35:43;0.10;;;0.10;;
7173;SDS011;3628;48.654;8.932;2023-05-10T08:38:08;0.20;;;0.20;;
7173;SDS011;3628;48.654;8.932;2023-05-10T08:40:34;0.50;;;0.20;;
7173;SDS011;3628;48.654;8.932;2023-05-10T08:43:05;1.50;;;0.20;;
7173;SDS011;3628;48.654;8.932;2023-05-10T08:45:44;0.23;;;0.10;;
7173;SDS011;3628;48.654;8.932;2023-05-10T08:48:13;0.10;;;0.10;;
7173;SDS011;3628;48.654;8.932;2023-05-10T08:50:40;0.30;;;0.20;;
7173;SDS011;3628;48.654;8.932;2023-05-10T08:53:12;0.10;;;0.10;;
7173;SDS011;3628;48.654;8.932;2023-05-10T08:55:40;0.17;;;0.10;;
7173;SDS011;3628;48.654;8.932;2023-05-10T08:58:07;2.10;;;0.20;;
7173;SDS011;3628;48.654;8.932;2023-05-10T09:00:33;1.77;;;0.20;;
7173;SDS011;3628;48.654;8.932;2023-05-10T09:03:00;0.93;;;0.20;;
7173;SDS011;3628;48.654;8.932;2023-05-10T09:05:26;1.87;;;0.20;;
7173;SDS011;3628;48.654;8.932;2023-05-10T09:07:52;0.83;;;0.33;;
7173;SDS011;3628;48.654;8.932;2023-05-10T09:10:18;1.13;;;0.10;;
7173;SDS011;3628;48.654;8.932;2023-05-10T09:12:45;0.10;;;0.10;;
7173;SDS011;3628;48.654;8.932;2023-05-10T09:15:11;1.07;;;0.20;;
7173;SDS011;3628;48.654;8.932;2023-05-10T09:17:39;0.20;;;0.20;;
7173;SDS011;3628;48.654;8.932;2023-05-10T09:20:06;0.53;;;0.20;;
7173;SDS011;3628;48.654;8.932;2023-05-10T09:22:32;0.20;;;0.10;;
7173;SDS011;3628;48.654;8.932;2023-05-10T09:25:08;0.00;;;0.00;;
7173;SDS011;3628;48.654;8.932;2023-05-10T09:27:36;0.83;;;0.73;;
7173;SDS011;3628;48.654;8.932;2023-05-10T09:30:02;0.57;;;0.20;;
7173;SDS011;3628;48.654;8.932;2023-05-10T09:32:40;0.10;;;0.10;;
7173;SDS011;3628;48.654;8.932;2023-05-10T09:35:10;0.23;;;0.13;;
7173;SDS011;3628;48.654;8.932;2023-05-10T09:37:42;0.10;;;0.10;;
7173;SDS011;3628;48.654;8.932;2023-05-10T09:40:13;0.40;;;0.08;;
7173;SDS011;3628;48.654;8.932;2023-05-10T09:42:41;0.20;;;0.20;;
7173;SDS011;3628;48.654;8.932;2023-05-10T09:45:07;0.88;;;0.10;;
7173;SDS011;3628;48.654;8.932;2023-05-10T09:47:34;0.52;;;0.17;;
7173;SDS011;3628;48.654;8.932;2023-05-10T09:50:01;0.77;;;0.22;;
7173;SDS011;3628;48.654;8.932;2023-05-10T09:52:28;0.20;;;0.20;;
7173;SDS011;3628;48.654;8.932;2023-05-10T09:55:11;0.40;;;0.10;;
7173;SDS011;3628;48.654;8.932;2023-05-10T09:57:37;0.43;;;0.20;;
7173;SDS011;3628;48.654;8.932;2023-05-10T10:00:03;1.23;;;0.10;;
7173;SDS011;3628;48.654;8.932;2023-05-10T10:02:30;0.43;;;0.15;;
7173;SDS011;3628;48.654;8.932;2023-05-10T10:04:56;0.50;;;0.10;;
7173;SDS011;3628;48.654;8.932;2023-05-10T10:07:23;0.10;;;0.10;;
7173;SDS011;3628;48.654;8.932;2023-05-10T10:09:50;0.08;;;0.08;;
7173;SDS011;3628;48.654;8.932;2023-05-10T10:12:16;0.10;;;0.10;;
7173;SDS011;3628;48.654;8.932;2023-05-10T10:14:42;0.95;;;0.20;;
7173;SDS011;3628;48.654;8.932;2023-05-10T10:17:08;0.15;;;0.15;;
7173;SDS011;3628;48.654;8.932;2023-05-10T10:19:34;0.55;;;0.28;;
7173;SDS011;3628;48.654;8.932;2023-05-10T10:22:00;1.20;;;0.40;;
7173;SDS011;3628;48.654;8.932;2023-05-10T10:24:26;0.32;;;0.13;;
7173;SDS011;3628;48.654;8.932;2023-05-10T10:26:52;0.70;;;0.55;;
7173;SDS011;3628;48.654;8.932;2023-05-10T10:29:24;0.43;;;0.10;;
7173;SDS011;3628;48.654;8.932;2023-05-10T10:34:45;1.88;;;0.28;;
7173;SDS011;3628;48.654;8.932;2023-05-10T10:37:11;1.20;;;0.28;;
7173;SDS011;3628;48.654;8.932;2023-05-10T10:39:37;1.03;;;0.20;;
7173;SDS011;3628;48.654;8.932;2023-05-10T10:42:03;1.07;;;0.17;;
7173;SDS011;3628;48.654;8.932;2023-05-10T10:52:24;0.70;;;0.20;;
7173;SDS011;3628;48.654;8.932;2023-05-10T10:57:57;0.67;;;0.20;;
7173;SDS011;3628;48.654;8.932;2023-05-10T11:02:52;0.10;;;0.10;;
7173;SDS011;3628;48.654;8.932;2023-05-10T11:07:57;0.63;;;0.20;;
7173;SDS011;3628;48.654;8.932;2023-05-10T11:10:25;0.17;;;0.10;;
7173;SDS011;3628;48.654;8.932;2023-05-10T11:13:00;0.40;;;0.20;;
7173;SDS011;3628;48.654;8.932;2023-05-10T11:15:34;1.30;;;0.30;;
7173;SDS011;3628;48.654;8.932;2023-05-10T11:18:20;0.10;;;0.10;;
7173;SDS011;3628;48.654;8.932;2023-05-10T11:20:57;0.13;;;0.13;;
7173;SDS011;3628;48.654;8.932;2023-05-10T11:23:51;1.80;;;0.17;;
7173;SDS011;3628;48.654;8.932;2023-05-10T11:26:20;1.13;;;0.20;;
7173;SDS011;3628;48.654;8.932;2023-05-10T11:28:48;1.83;;;0.40;;
7173;SDS011;3628;48.654;8.932;2023-05-10T11:31:14;1.37;;;0.20;;
7173;SDS011;3628;48.654;8.932;2023-05-10T11:36:11;0.47;;;0.20;;
7173;SDS011;3628;48.654;8.932;2023-05-10T11:38:37;0.53;;;0.30;;
7173;SDS011;3628;48.654;8.932;2023-05-10T11:41:03;0.73;;;0.20;;
7173;SDS011;3628;48.654;8.932;2023-05-10T11:43:28;1.33;;;0.20;;
7173;SDS011;3628;48.654;8.932;2023-05-10T11:45:55;0.60;;;0.30;;
7173;SDS011;3628;48.654;8.932;2023-05-10T11:48:21;1.23;;;0.40;;
7173;SDS011;3628;48.654;8.932;2023-05-10T11:50:49;1.23;;;0.33;;
7173;SDS011;3628;48.654;8.932;2023-05-10T11:53:15;1.70;;;0.33;;
7173;SDS011;3628;48.654;8.932;2023-05-10T11:55:40;0.77;;;0.47;;
7173;SDS011;3628;48.654;8.932;2023-05-10T11:58:06;2.13;;;0.53;;
7173;SDS011;3628;48.654;8.932;2023-05-10T12:00:31;0.30;;;0.30;;
7173;SDS011;3628;48.654;8.932;2023-05-10T12:02:57;0.73;;;0.53;;
7173;SDS011;3628;48.654;8.932;2023-05-10T12:05:23;0.67;;;0.60;;
7173;SDS011;3628;48.654;8.932;2023-05-10T12:07:49;0.37;;;0.37;;
7173;SDS011;3628;48.654;8.932;2023-05-10T12:10:15;2.87;;;1.03;;
7173;SDS011;3628;48.654;8.932;2023-05-10T12:12:43;1.43;;;1.13;;
7173;SDS011;3628;48.654;8.932;2023-05-10T12:15:17;2.10;;;0.60;;
7173;SDS011;3628;48.654;8.932;2023-05-10T12:17:43;0.33;;;0.30;;
7173;SDS011;3628;48.654;8.932;2023-05-10T12:20:13;0.73;;;0.37;;
7173;SDS011;3628;48.654;8.932;2023-05-10T12:22:39;3.40;;;0.70;;
7173;SDS011;3628;48.654;8.932;2023-05-10T12:25:05;0.77;;;0.40;;
7173;SDS011;3628;48.654;8.932;2023-05-10T12:27:32;1.57;;;0.80;;
7173;SDS011;3628;48.654;8.932;2023-05-10T12:30:02;2.00;;;0.80;;
7173;SDS011;3628;48.654;8.932;2023-05-10T12:33:28;1.30;;;0.90;;
7173;SDS011;3628;48.654;8.932;2023-05-10T12:35:27;1.33;;;0.60;;
7173;SDS011;3628;48.654;8.932;2023-05-10T12:37:55;0.60;;;0.50;;
7173;SDS011;3628;48.654;8.932;2023-05-10T12:40:21;1.77;;;0.50;;
7173;SDS011;3628;48.654;8.932;2023-05-10T12:42:46;2.60;;;0.73;;
7173;SDS011;3628;48.654;8.932;2023-05-10T12:45:13;8.27;;;0.80;;
7173;SDS011;3628;48.654;8.932;2023-05-10T12:47:39;1.17;;;0.47;;
7173;SDS011;3628;48.654;8.932;2023-05-10T12:50:05;1.03;;;0.40;;
7173;SDS011;3628;48.654;8.932;2023-05-10T12:52:31;1.37;;;0.40;;
7173;SDS011;3628;48.654;8.932;2023-05-10T12:54:57;0.90;;;0.40;;
7173;SDS011;3628;48.654;8.932;2023-05-10T12:57:24;2.57;;;0.33;;
7173;SDS011;3628;48.654;8.932;2023-05-10T12:59:50;1.03;;;0.30;;
7173;SDS011;3628;48.654;8.932;2023-05-10T13:02:15;2.77;;;0.40;;
7173;SDS011;3628;48.654;8.932;2023-05-10T13:04:43;1.27;;;0.33;;
7173;SDS011;3628;48.654;8.932;2023-05-10T13:07:12;1.37;;;0.50;;
7173;SDS011;3628;48.654;8.932;2023-05-10T13:09:37;2.57;;;0.40;;
7173;SDS011;3628;48.654;8.932;2023-05-10T13:12:03;0.70;;;0.40;;
7173;SDS011;3628;48.654;8.932;2023-05-10T13:14:29;0.90;;;0.40;;
7173;SDS011;3628;48.654;8.932;2023-05-10T13:16:55;1.53;;;0.40;;
7173;SDS011;3628;48.654;8.932;2023-05-10T13:19:21;2.40;;;0.30;;
7173;SDS011;3628;48.654;8.932;2023-05-10T13:21:47;2.13;;;0.60;;
7173;SDS011;3628;48.654;8.932;2023-05-10T13:24:12;1.70;;;0.50;;
7173;SDS011;3628;48.654;8.932;2023-05-10T13:26:41;0.20;;;0.20;;
7173;SDS011;3628;48.654;8.932;2023-05-10T13:29:08;1.07;;;0.40;;
7173;SDS011;3628;48.654;8.932;2023-05-10T13:31:33;0.53;;;0.40;;
7173;SDS011;3628;48.654;8.932;2023-05-10T13:33:59;0.67;;;0.40;;
7173;SDS011;3628;48.654;8.932;2023-05-10T13:36:25;1.87;;;0.40;;
7173;SDS011;3628;48.654;8.932;2023-05-10T13:38:51;1.03;;;0.27;;
7173;SDS011;3628;48.654;8.932;2023-05-10T13:41:16;1.33;;;0.30;;
7173;SDS011;3628;48.654;8.932;2023-05-10T13:43:42;2.13;;;0.37;;
7173;SDS011;3628;48.654;8.932;2023-05-10T13:46:08;1.57;;;0.70;;
7173;SDS011;3628;48.654;8.932;2023-05-10T13:48:33;0.55;;;0.50;;
7173;SDS011;3628;48.654;8.932;2023-05-10T13:50:59;1.83;;;0.50;;
7173;SDS011;3628;48.654;8.932;2023-05-10T13:53:24;1.20;;;0.22;;
7173;SDS011;3628;48.654;8.932;2023-05-10T13:55:50;0.63;;;0.50;;
7173;SDS011;3628;48.654;8.932;2023-05-10T13:58:16;0.75;;;0.45;;
7173;SDS011;3628;48.654;8.932;2023-05-10T14:00:41;0.88;;;0.40;;
7173;SDS011;3628;48.654;8.932;2023-05-10T14:03:07;1.35;;;0.25;;
7173;SDS011;3628;48.654;8.932;2023-05-10T14:05:34;0.90;;;0.43;;
7173;SDS011;3628;48.654;8.932;2023-05-10T14:07:59;0.63;;;0.43;;
7173;SDS011;3628;48.654;8.932;2023-05-10T14:10:25;1.20;;;0.55;;
7173;SDS011;3628;48.654;8.932;2023-05-10T14:12:50;1.05;;;0.50;;
7173;SDS011;3628;48.654;8.932;2023-05-10T14:15:16;1.52;;;0.30;;
7173;SDS011;3628;48.654;8.932;2023-05-10T14:17:41;1.00;;;0.50;;
7173;SDS011;3628;48.654;8.932;2023-05-10T14:20:07;0.65;;;0.30;;
7173;SDS011;3628;48.654;8.932;2023-05-10T14:22:33;0.52;;;0.32;;
7173;SDS011;3628;48.654;8.932;2023-05-10T14:24:59;0.85;;;0.30;;
7173;SDS011;3628;48.654;8.932;2023-05-10T14:27:25;0.10;;;0.10;;
7173;SDS011;3628;48.654;8.932;2023-05-10T14:29:50;1.63;;;0.30;;
7173;SDS011;3628;48.654;8.932;2023-05-10T14:32:16;0.82;;;0.30;;
7173;SDS011;3628;48.654;8.932;2023-05-10T14:34:41;3.63;;;0.40;;
7173;SDS011;3628;48.654;8.932;2023-05-10T14:37:09;1.63;;;0.40;;
7173;SDS011;3628;48.654;8.932;2023-05-10T14:39:36;0.20;;;0.20;;
7173;SDS011;3628;48.654;8.932;2023-05-10T14:42:01;0.40;;;0.20;;
7173;SDS011;3628;48.654;8.932;2023-05-10T14:44:27;0.17;;;0.17;;
7173;SDS011;3628;48.654;8.932;2023-05-10T14:46:53;1.43;;;0.40;;
7173;SDS011;3628;48.654;8.932;2023-05-10T14:49:18;0.97;;;0.30;;
7173;SDS011;3628;48.654;8.932;2023-05-10T14:51:47;1.38;;;0.22;;
7173;SDS011;3628;48.654;8.932;2023-05-10T14:54:13;0.30;;;0.20;;
7173;SDS011;3628;48.654;8.932;2023-05-10T14:56:38;0.30;;;0.30;;
7173;SDS011;3628;48.654;8.932;2023-05-10T14:59:06;0.87;;;0.20;;
7173;SDS011;3628;48.654;8.932;2023-05-10T15:01:32;0.20;;;0.20;;
7173;SDS011;3628;48.654;8.932;2023-05-10T15:03:57;0.30;;;0.20;;
7173;SDS011;3628;48.654;8.932;2023-05-10T15:06:23;3.50;;;0.30;;
7173;SDS011;3628;48.654;8.932;2023-05-10T15:08:55;2.73;;;0.40;;
7173;SDS011;3628;48.654;8.932;2023-05-10T15:11:22;1.20;;;0.23;;
7173;SDS011;3628;48.654;8.932;2023-05-10T15:13:47;1.20;;;0.22;;
7173;SDS011;3628;48.654;8.932;2023-05-10T15:16:13;0.20;;;0.20;;
7173;SDS011;3628;48.654;8.932;2023-05-10T15:18:38;0.73;;;0.23;;
7173;SDS011;3628;48.654;8.932;2023-05-10T15:21:04;1.80;;;0.43;;
7173;SDS011;3628;48.654;8.932;2023-05-10T15:23:29;0.20;;;0.17;;
7173;SDS011;3628;48.654;8.932;2023-05-10T15:25:55;0.10;;;0.10;;
7173;SDS011;3628;48.654;8.932;2023-05-10T15:28:21;0.60;;;0.20;;
7173;SDS011;3628;48.654;8.932;2023-05-10T15:30:47;0.67;;;0.20;;
7173;SDS011;3628;48.654;8.932;2023-05-10T15:33:12;1.33;;;0.30;;
7173;SDS011;3628;48.654;8.932;2023-05-10T15:35:38;0.57;;;0.20;;
7173;SDS011;3628;48.654;8.932;2023-05-10T15:38:04;1.50;;;0.20;;
7173;SDS011;3628;48.654;8.932;2023-05-10T15:40:30;0.30;;;0.20;;
7173;SDS011;3628;48.654;8.932;2023-05-10T15:42:56;2.17;;;0.20;;
7173;SDS011;3628;48.654;8.932;2023-05-10T15:45:22;0.20;;;0.20;;
7173;SDS011;3628;48.654;8.932;2023-05-10T15:47:47;0.10;;;0.10;;
7173;SDS011;3628;48.654;8.932;2023-05-10T15:50:14;1.73;;;0.30;;
7173;SDS011;3628;48.654;8.932;2023-05-10T15:52:40;0.60;;;0.20;;
7173;SDS011;3628;48.654;8.932;2023-05-10T15:55:06;0.80;;;0.10;;
7173;SDS011;3628;48.654;8.932;2023-05-10T15:57:37;0.38;;;0.20;;
7173;SDS011;3628;48.654;8.932;2023-05-10T16:00:03;1.20;;;0.30;;